National Weather Service Raw Text Product

Displaying AFOS PIL: TAFFOD Received: 2017-09-14 05:20 UTC


277 
FTUS43 KDMX 140520
TAFFOD
TAF
KFOD 140520Z 1406/1506 16003KT P6SM SCT150
     FM141600 19012G18KT P6SM BKN110
     FM141900 19012G23KT P6SM BKN250
     FM142300 17011KT P6SM SCT200
     FM150200 17009KT P6SM BKN100 BKN200=